createdAt,value
2018-05-02T00:00:47.877Z,56.90
2018-05-02T00:03:15.412Z,56.80
2018-05-02T00:05:42.977Z,53.80
2018-05-02T00:08:10.516Z,54.70
2018-05-02T00:10:38.077Z,53.80
2018-05-02T00:13:05.616Z,55.10
2018-05-02T00:15:33.944Z,54.70
2018-05-02T00:18:01.541Z,54.60
2018-05-02T00:20:29.068Z,57.30
2018-05-02T00:22:57.370Z,55.80
2018-05-02T00:25:24.932Z,55.70
2018-05-02T00:27:52.464Z,56.30
2018-05-02T00:30:20.032Z,56.70
2018-05-02T00:32:47.573Z,54.10
2018-05-02T00:35:15.136Z,54.70
2018-05-02T00:37:42.676Z,54.30
2018-05-02T00:40:10.240Z,53.00
2018-05-02T00:42:37.772Z,54.70
2018-05-02T00:45:05.385Z,53.60
2018-05-02T00:47:32.957Z,56.40
2018-05-02T00:50:00.493Z,54.70
2018-05-02T00:52:28.064Z,54.00
2018-05-02T00:54:55.661Z,57.70
2018-05-02T00:57:23.992Z,56.70
2018-05-02T00:59:51.539Z,56.90
2018-05-02T01:02:19.102Z,57.30
2018-05-02T01:04:46.639Z,55.80
2018-05-02T01:07:14.214Z,56.60
2018-05-02T01:09:41.760Z,53.90
2018-05-02T01:12:09.317Z,53.60
2018-05-02T01:14:36.856Z,54.00
2018-05-02T01:17:04.420Z,56.60
2018-05-02T01:19:31.962Z,56.00
2018-05-02T01:21:59.526Z,56.50
2018-05-02T01:24:27.060Z,58.20
2018-05-02T01:26:55.396Z,56.20
2018-05-02T01:29:22.928Z,56.10
2018-05-02T01:31:50.500Z,58.90
2018-05-02T01:34:18.041Z,58.50
2018-05-02T01:36:45.605Z,54.40
2018-05-02T01:39:13.145Z,57.50
2018-05-02T01:41:40.709Z,56.70
2018-05-02T01:44:08.248Z,56.80
2018-05-02T01:46:35.886Z,56.20
2018-05-02T01:49:15.056Z,56.30
2018-05-02T01:51:43.382Z,57.30
2018-05-02T01:54:10.912Z,57.30
2018-05-02T01:56:38.472Z,55.50
2018-05-02T01:59:06.008Z,56.10
2018-05-02T02:01:33.569Z,54.00
2018-05-02T02:04:01.124Z,55.40
2018-05-02T02:06:29.455Z,56.30
2018-05-02T02:08:56.996Z,56.40
2018-05-02T02:11:24.564Z,56.00
2018-05-02T02:13:52.104Z,55.30
2018-05-02T02:16:19.664Z,56.60
2018-05-02T02:18:47.195Z,54.50
2018-05-02T02:21:14.757Z,55.50
2018-05-02T02:23:42.311Z,55.60
2018-05-02T02:26:09.880Z,56.00
2018-05-02T02:28:37.428Z,56.20
2018-05-02T02:31:05.025Z,55.80
2018-05-02T02:33:32.560Z,54.30
2018-05-02T02:36:00.126Z,57.50
2018-05-02T02:38:27.667Z,54.40
2018-05-02T02:40:55.243Z,55.60
2018-05-02T02:43:22.784Z,55.00
2018-05-02T02:45:50.361Z,54.00
2018-05-02T02:48:17.909Z,55.00
2018-05-02T02:50:45.485Z,56.30
2018-05-02T02:53:13.216Z,53.00
2018-05-02T02:55:40.749Z,54.50
2018-05-02T02:58:08.309Z,56.10
2018-05-02T03:00:35.843Z,54.70
2018-05-02T03:03:03.405Z,55.20
2018-05-02T03:05:30.950Z,55.30
2018-05-02T03:07:58.511Z,55.00
2018-05-02T03:10:26.062Z,54.50
2018-05-02T03:12:53.616Z,52.80
2018-05-02T03:15:21.156Z,54.50
2018-05-02T03:17:48.728Z,57.10
2018-05-02T03:20:16.279Z,56.40
2018-05-02T03:22:43.852Z,56.90
2018-05-02T03:25:11.394Z,55.30
2018-05-02T03:27:38.969Z,54.90
2018-05-02T03:30:06.504Z,55.80
2018-05-02T03:32:34.069Z,53.50
2018-05-02T03:35:01.605Z,55.00
2018-05-02T03:37:29.936Z,54.80
2018-05-02T03:39:57.477Z,54.70
2018-05-02T03:42:25.033Z,56.60
2018-05-02T03:44:52.568Z,57.60
2018-05-02T03:47:20.142Z,56.40
2018-05-02T03:49:47.809Z,56.60
2018-05-02T03:52:18.088Z,56.80
2018-05-02T03:54:45.920Z,55.20
2018-05-02T03:57:13.463Z,58.80
2018-05-02T03:59:52.968Z,57.30
2018-05-02T04:02:32.253Z,55.50
2018-05-02T04:05:11.560Z,56.90
2018-05-02T04:07:39.098Z,58.90
2018-05-02T04:10:06.665Z,56.60
2018-05-02T04:12:34.209Z,54.40
2018-05-02T04:15:01.825Z,54.70
2018-05-02T04:17:29.370Z,54.70
2018-05-02T04:19:56.944Z,56.50
2018-05-02T04:22:24.492Z,56.60
2018-05-02T04:24:52.060Z,56.90
2018-05-02T04:27:19.600Z,57.50
2018-05-02T04:29:47.160Z,55.30
2018-05-02T04:32:14.699Z,54.90
2018-05-02T04:34:42.261Z,55.20
2018-05-02T04:37:09.796Z,53.90
2018-05-02T04:39:38.128Z,55.50
2018-05-02T04:42:05.669Z,55.50
2018-05-02T04:44:33.232Z,56.30
2018-05-02T04:47:00.768Z,55.40
2018-05-02T04:49:28.332Z,57.30
2018-05-02T04:51:55.877Z,56.80
2018-05-02T04:54:23.552Z,54.30
2018-05-02T04:56:51.088Z,54.60
2018-05-02T04:59:18.645Z,56.00
2018-05-02T05:01:46.176Z,55.30
2018-05-02T05:04:13.720Z,55.00
2018-05-02T05:06:41.313Z,54.20
2018-05-02T05:09:09.604Z,53.10
2018-05-02T05:11:37.169Z,53.10
2018-05-02T05:14:04.717Z,58.40
2018-05-02T05:16:32.287Z,55.90
2018-05-02T05:18:59.824Z,57.70
2018-05-02T05:21:27.396Z,55.30
2018-05-02T05:23:55.718Z,57.10
2018-05-02T05:26:23.281Z,56.50
2018-05-02T05:28:50.825Z,57.60
2018-05-02T05:31:18.397Z,55.80
2018-05-02T05:33:45.936Z,58.90
2018-05-02T05:36:13.501Z,55.40
2018-05-02T05:38:41.804Z,56.10
2018-05-02T05:41:09.371Z,56.00
2018-05-02T05:43:36.926Z,57.20
2018-05-02T05:46:05.277Z,59.60
2018-05-02T05:48:32.821Z,59.60
2018-05-02T05:51:00.400Z,56.30
2018-05-02T05:53:27.936Z,55.00
2018-05-02T05:55:55.481Z,55.90
2018-05-02T05:58:23.044Z,56.20
2018-05-02T06:00:50.640Z,53.50
2018-05-02T06:03:18.173Z,53.50
2018-05-02T06:05:45.721Z,54.50
2018-05-02T06:08:13.286Z,55.90
2018-05-02T06:10:40.828Z,55.50
2018-05-02T06:13:08.398Z,55.20
2018-05-02T06:15:35.941Z,54.80
2018-05-02T06:18:03.513Z,56.30
2018-05-02T06:20:31.124Z,56.00
2018-05-02T06:23:01.109Z,53.80
2018-05-02T06:25:28.660Z,53.70
2018-05-02T06:27:56.236Z,53.80
2018-05-02T06:30:23.780Z,54.90
2018-05-02T06:32:51.350Z,54.50
2018-05-02T06:35:18.897Z,54.80
2018-05-02T06:37:46.516Z,55.80
2018-05-02T06:40:14.037Z,54.90
2018-05-02T06:42:41.611Z,55.00
2018-05-02T06:45:09.152Z,54.50
2018-05-02T06:47:36.722Z,55.20
2018-05-02T06:50:04.273Z,54.80
2018-05-02T06:52:31.866Z,54.50
2018-05-02T06:54:59.413Z,54.10
2018-05-02T06:57:27.787Z,52.80
2018-05-02T06:59:56.108Z,53.10
2018-05-02T07:02:23.648Z,53.00
2018-05-02T07:04:51.218Z,54.80
2018-05-02T07:07:18.756Z,54.70
2018-05-02T07:09:47.084Z,55.60
2018-05-02T07:12:14.629Z,55.60
2018-05-02T07:14:42.204Z,55.00
2018-05-02T07:17:09.757Z,54.90
2018-05-02T07:19:37.333Z,56.40
2018-05-02T07:22:04.873Z,54.70
2018-05-02T07:24:32.443Z,54.20
2018-05-02T07:26:59.985Z,54.80
2018-05-02T07:29:27.557Z,54.70
2018-05-02T07:31:56.604Z,53.50
2018-05-02T07:34:24.177Z,53.30
2018-05-02T07:36:51.724Z,53.40
2018-05-02T07:39:19.295Z,53.30
2018-05-02T07:41:47.032Z,53.40
2018-05-02T07:44:14.600Z,54.00
2018-05-02T07:46:42.140Z,54.40
2018-05-02T07:49:09.719Z,53.70
2018-05-02T07:51:37.277Z,54.30
2018-05-02T07:54:04.845Z,53.30
2018-05-02T07:56:32.429Z,53.10
2018-05-02T07:58:59.992Z,52.70
2018-05-02T08:01:27.537Z,53.40
2018-05-02T08:03:55.108Z,54.20
2018-05-02T08:06:22.657Z,53.00
2018-05-02T08:08:50.206Z,52.90
2018-05-02T08:11:17.777Z,52.70
2018-05-02T08:13:45.372Z,53.10
2018-05-02T08:16:12.918Z,52.70
2018-05-02T08:18:40.461Z,53.20
2018-05-02T08:21:08.033Z,52.70
2018-05-02T08:23:35.577Z,52.90
2018-05-02T08:26:03.145Z,52.30
2018-05-02T08:28:30.706Z,52.90
2018-05-02T08:30:58.279Z,53.00
2018-05-02T08:33:25.816Z,52.90
2018-05-02T08:35:53.837Z,53.60
2018-05-02T08:38:21.408Z,53.30
2018-05-02T08:40:48.984Z,53.50
2018-05-02T08:43:16.524Z,54.10
2018-05-02T08:45:44.088Z,53.00
2018-05-02T08:48:11.640Z,53.50
2018-05-02T08:50:39.205Z,53.10
2018-05-02T08:53:06.752Z,52.60
2018-05-02T08:55:34.321Z,53.10
2018-05-02T08:58:01.908Z,52.50
2018-05-02T09:00:29.479Z,52.20
2018-05-02T09:02:57.031Z,53.40
2018-05-02T09:05:24.620Z,52.20
2018-05-02T09:07:52.940Z,52.50
2018-05-02T09:10:20.528Z,52.50
2018-05-02T09:12:48.081Z,53.20
2018-05-02T09:15:15.896Z,52.60
2018-05-02T09:17:43.436Z,51.80
2018-05-02T09:20:10.984Z,51.50
2018-05-02T09:22:38.556Z,51.80
2018-05-02T09:25:06.953Z,52.90
2018-05-02T09:27:34.525Z,52.90
2018-05-02T09:30:02.069Z,52.10
2018-05-02T09:32:29.641Z,52.80
2018-05-02T09:34:57.388Z,51.60
2018-05-02T09:37:24.953Z,51.60
2018-05-02T09:39:52.506Z,51.70
2018-05-02T09:42:20.077Z,52.00
2018-05-02T09:44:47.625Z,52.00
2018-05-02T09:47:15.971Z,52.20
2018-05-02T09:49:43.518Z,52.10
2018-05-02T09:52:11.097Z,51.70
2018-05-02T09:54:38.653Z,51.10
2018-05-02T09:57:06.270Z,51.60
2018-05-02T09:59:33.922Z,53.00
2018-05-02T10:02:01.561Z,51.80
2018-05-02T10:04:29.111Z,51.50
2018-05-02T10:06:57.457Z,51.30
2018-05-02T10:12:18.125Z,51.00
2018-05-02T10:14:45.869Z,50.80
2018-05-02T10:17:13.436Z,50.00
2018-05-02T10:19:40.989Z,50.30
2018-05-02T10:22:08.561Z,49.40
2018-05-02T10:24:36.108Z,49.20
2018-05-02T10:27:03.677Z,49.30
2018-05-02T10:29:31.537Z,47.70
2018-05-02T10:31:59.115Z,48.50
2018-05-02T10:34:26.657Z,48.80
2018-05-02T10:36:54.296Z,47.00
2018-05-02T10:39:21.801Z,46.90
2018-05-02T10:41:49.352Z,47.90
2018-05-02T10:44:17.750Z,46.60
2018-05-02T10:46:45.302Z,47.40
2018-05-02T10:49:12.872Z,47.60
2018-05-02T10:51:40.474Z,46.90
2018-05-02T10:54:08.054Z,47.30
2018-05-02T10:56:35.601Z,47.10
2018-05-02T10:59:03.168Z,45.80
2018-05-02T11:01:30.716Z,45.90
2018-05-02T11:03:58.289Z,45.50
2018-05-02T11:06:25.841Z,44.30
2018-05-02T11:08:53.413Z,45.20
2018-05-02T11:11:20.971Z,44.80
2018-05-02T11:13:48.581Z,45.00
2018-05-02T11:16:16.125Z,44.80
2018-05-02T11:18:43.857Z,45.00
2018-05-02T11:21:11.402Z,43.90
2018-05-02T11:23:39.076Z,44.70
2018-05-02T11:26:06.621Z,41.80
2018-05-02T11:28:34.197Z,41.50
2018-05-02T11:31:01.752Z,42.00
2018-05-02T11:33:29.321Z,41.50
2018-05-02T11:35:56.878Z,39.90
2018-05-02T11:38:24.461Z,41.30
2018-05-02T11:40:52.009Z,41.20
2018-05-02T11:43:19.557Z,40.00
2018-05-02T11:45:47.129Z,38.80
2018-05-02T11:48:14.681Z,41.10
2018-05-02T11:50:42.252Z,38.50
2018-05-02T11:53:09.802Z,38.20
2018-05-02T11:55:37.373Z,38.60
2018-05-02T11:58:04.921Z,39.80
2018-05-02T12:06:18.255Z,37.20
2018-05-02T12:08:45.837Z,38.30
2018-05-02T12:11:13.455Z,36.20
2018-05-02T12:13:41.019Z,37.00
2018-05-02T12:16:08.655Z,36.60
2018-05-02T12:18:36.168Z,35.60
2018-05-02T12:21:03.750Z,37.40
2018-05-02T12:23:31.352Z,37.90
2018-05-02T12:25:58.943Z,37.00
2018-05-02T12:28:27.007Z,38.50
2018-05-02T12:30:54.589Z,38.40
2018-05-02T12:33:22.137Z,36.40
2018-05-02T12:35:49.706Z,39.00
2018-05-02T12:38:17.301Z,38.30
2018-05-02T12:40:44.926Z,36.80
2018-05-02T12:43:12.477Z,38.40
2018-05-02T12:45:40.054Z,39.30
2018-05-02T12:48:07.606Z,38.60
2018-05-02T12:50:35.188Z,39.80
2018-05-02T12:53:02.961Z,38.00
2018-05-02T12:55:30.540Z,40.20
2018-05-02T12:57:58.089Z,39.10
2018-05-02T13:00:25.676Z,38.90
2018-05-02T13:02:53.236Z,38.00
2018-05-02T13:05:20.813Z,39.80
2018-05-02T13:07:49.133Z,39.50
2018-05-02T13:10:16.714Z,39.50
2018-05-02T13:12:44.261Z,39.70
2018-05-02T13:15:12.607Z,38.20
2018-05-02T13:17:40.165Z,38.10
2018-05-02T13:20:07.763Z,39.40
2018-05-02T13:22:35.314Z,40.20
2018-05-02T13:25:03.727Z,39.40
2018-05-02T13:27:31.305Z,39.40
2018-05-02T13:29:59.655Z,39.40
2018-05-02T13:32:27.241Z,39.70
2018-05-02T13:34:54.791Z,39.30
2018-05-02T13:37:22.378Z,39.70
2018-05-02T13:39:49.929Z,38.80
2018-05-02T13:42:17.500Z,38.10
2018-05-02T13:44:45.063Z,39.60
2018-05-02T13:47:12.649Z,39.80
2018-05-02T13:49:40.211Z,38.00
2018-05-02T13:52:07.802Z,38.50
2018-05-02T13:54:35.350Z,37.80
2018-05-02T13:57:03.027Z,37.50
2018-05-02T13:59:30.576Z,36.30
2018-05-02T14:01:58.154Z,37.80
2018-05-02T14:04:25.715Z,36.70
2018-05-02T14:06:53.296Z,38.20
2018-05-02T14:09:21.616Z,38.80
2018-05-02T14:11:49.190Z,38.70
2018-05-02T14:14:16.749Z,38.50
2018-05-02T14:16:44.330Z,37.70
2018-05-02T14:19:11.897Z,37.80
2018-05-02T14:21:39.710Z,39.00
2018-05-02T14:24:07.260Z,36.90
2018-05-02T14:26:34.850Z,37.50
2018-05-02T14:29:03.166Z,38.40
2018-05-02T14:31:30.734Z,38.40
2018-05-02T14:33:58.325Z,37.70
2018-05-02T14:36:25.873Z,37.40
2018-05-02T14:38:53.451Z,37.50
2018-05-02T14:41:21.007Z,37.80
2018-05-02T14:43:48.591Z,37.10
2018-05-02T14:46:16.905Z,38.70
2018-05-02T14:48:44.514Z,38.60
2018-05-02T14:51:12.070Z,37.50
2018-05-02T14:53:39.647Z,37.70
2018-05-02T14:56:07.202Z,38.70
2018-05-02T14:58:34.809Z,38.20
2018-05-02T15:01:02.371Z,39.40
2018-05-02T15:03:29.963Z,39.30
2018-05-02T15:05:57.521Z,38.70
2018-05-02T15:08:25.098Z,39.30
2018-05-02T15:10:53.216Z,39.70
2018-05-02T15:13:21.564Z,40.00
2018-05-02T15:15:49.135Z,40.00
2018-05-02T15:18:16.725Z,39.80
2018-05-02T15:20:44.287Z,40.10
2018-05-02T15:23:11.862Z,39.50
2018-05-02T15:25:39.415Z,39.40
2018-05-02T15:28:07.006Z,39.90
2018-05-02T15:30:34.562Z,40.20
2018-05-02T15:33:02.141Z,39.30
2018-05-02T15:35:30.468Z,39.30
2018-05-02T15:37:58.056Z,39.80
2018-05-02T15:40:25.622Z,39.10
2018-05-02T15:42:53.208Z,39.20
2018-05-02T15:45:21.557Z,39.80
2018-05-02T15:47:49.106Z,39.60
2018-05-02T15:50:16.699Z,40.10
2018-05-02T15:52:44.260Z,40.10
2018-05-02T15:55:12.606Z,40.50
2018-05-02T15:57:40.241Z,40.50
2018-05-02T16:00:07.774Z,40.60
2018-05-02T16:02:35.329Z,40.70
2018-05-02T16:05:03.677Z,40.30
2018-05-02T16:07:31.230Z,40.20
2018-05-02T16:09:58.900Z,40.50
2018-05-02T16:12:26.394Z,39.60
2018-05-02T16:14:53.974Z,40.40
2018-05-02T16:17:21.522Z,40.70
2018-05-02T16:19:49.950Z,40.80
2018-05-02T16:22:18.386Z,41.20
2018-05-02T16:24:45.957Z,41.10
2018-05-02T16:27:13.513Z,41.20
2018-05-02T16:29:41.090Z,40.90
2018-05-02T16:32:08.655Z,40.40
2018-05-02T16:34:36.262Z,40.00
2018-05-02T16:37:03.805Z,40.30
2018-05-02T16:39:31.398Z,40.80
2018-05-02T16:41:58.956Z,40.80
2018-05-02T16:44:26.673Z,40.50
2018-05-02T16:46:54.253Z,41.20
2018-05-02T16:49:21.825Z,41.00
2018-05-02T16:51:49.704Z,41.20
2018-05-02T16:54:17.468Z,41.30
2018-05-02T16:56:45.055Z,42.00
2018-05-02T16:59:12.635Z,41.60
2018-05-02T17:01:40.233Z,41.90
2018-05-02T17:04:07.813Z,42.00
2018-05-02T17:06:35.474Z,42.20
2018-05-02T17:09:03.127Z,42.10
2018-05-02T17:11:30.756Z,42.20
2018-05-02T17:13:58.382Z,42.00
2018-05-02T17:16:25.944Z,42.10
2018-05-02T17:18:53.541Z,41.90
2018-05-02T17:21:21.105Z,42.00
2018-05-02T17:23:48.669Z,42.90
2018-05-02T17:26:16.258Z,42.90
2018-05-02T17:28:43.877Z,42.40
2018-05-02T17:31:11.462Z,42.10
2018-05-02T17:33:39.024Z,42.00
2018-05-02T17:36:06.615Z,42.90
2018-05-02T17:38:34.166Z,42.50
2018-05-02T17:41:01.883Z,43.00
2018-05-02T17:43:29.409Z,45.70
2018-05-02T17:45:56.994Z,44.80
2018-05-02T17:48:24.549Z,45.40
2018-05-02T17:50:52.901Z,44.40
2018-05-02T17:53:20.460Z,44.40
2018-05-02T17:55:48.050Z,46.80
2018-05-02T17:58:15.648Z,47.20
2018-05-02T18:00:43.233Z,46.90
2018-05-02T18:03:10.794Z,48.90
2018-05-02T18:05:38.387Z,47.30
2018-05-02T18:08:06.069Z,47.30
2018-05-02T18:10:33.737Z,46.80
2018-05-02T18:13:02.030Z,48.00
2018-05-02T18:15:29.656Z,47.70
2018-05-02T18:17:57.229Z,46.90
2018-05-02T18:20:24.816Z,48.40
2018-05-02T18:22:52.456Z,50.10
2018-05-02T18:25:20.771Z,48.80
2018-05-02T18:27:48.334Z,48.80
2018-05-02T18:30:16.718Z,47.20
2018-05-02T18:32:44.282Z,47.20
2018-05-02T18:35:12.658Z,47.90
2018-05-02T18:37:40.982Z,48.10
2018-05-02T18:40:08.541Z,48.20
2018-05-02T18:42:36.126Z,50.90
2018-05-02T18:45:03.707Z,47.80
2018-05-02T18:47:32.053Z,48.70
2018-05-02T18:49:59.617Z,48.60
2018-05-02T18:52:27.207Z,50.00
2018-05-02T18:54:54.771Z,48.20
2018-05-02T18:57:23.134Z,47.40
2018-05-02T18:59:51.476Z,49.80
2018-05-02T19:02:19.061Z,49.70
2018-05-02T19:04:46.638Z,49.10
2018-05-02T19:07:14.228Z,48.30
2018-05-02T19:09:41.782Z,50.40
2018-05-02T19:12:09.403Z,48.30
2018-05-02T19:14:37.431Z,49.60
2018-05-02T19:17:06.023Z,50.00
2018-05-02T19:19:40.356Z,49.90
2018-05-02T19:22:07.928Z,49.20
2018-05-02T19:24:41.200Z,48.80
2018-05-02T19:27:08.781Z,49.80
2018-05-02T19:29:36.415Z,50.30
2018-05-02T19:32:09.554Z,51.20
2018-05-02T19:34:37.097Z,49.70
2018-05-02T19:37:05.450Z,51.60
2018-05-02T19:39:38.542Z,51.40
2018-05-02T19:42:11.707Z,50.70
2018-05-02T19:44:39.262Z,51.30
2018-05-02T19:47:06.836Z,51.40
2018-05-02T19:49:34.415Z,51.70
2018-05-02T19:52:07.770Z,51.70
2018-05-02T19:54:35.325Z,53.40
2018-05-02T19:57:02.977Z,51.70
2018-05-02T19:59:30.503Z,50.20
2018-05-02T20:02:12.979Z,51.80
2018-05-02T20:04:40.571Z,52.10
2018-05-02T20:07:23.046Z,52.70
2018-05-02T20:09:57.146Z,53.00
2018-05-02T20:12:30.297Z,52.90
2018-05-02T20:14:57.869Z,51.10
2018-05-02T20:17:25.444Z,52.20
2018-05-02T20:19:53.000Z,52.20
2018-05-02T20:22:20.587Z,52.20
2018-05-02T20:24:48.134Z,50.90
2018-05-02T20:27:15.719Z,51.60
2018-05-02T20:29:43.279Z,52.60
2018-05-02T20:32:10.834Z,51.70
2018-05-02T20:34:38.415Z,50.80
2018-05-02T20:37:06.746Z,51.80
2018-05-02T20:39:34.337Z,51.70
2018-05-02T20:42:01.975Z,52.60
2018-05-02T20:44:29.501Z,51.70
2018-05-02T20:46:57.050Z,51.00
2018-05-02T20:49:24.696Z,54.30
2018-05-02T20:51:52.266Z,52.90
2018-05-02T20:54:19.877Z,53.70
2018-05-02T20:56:47.444Z,53.00
2018-05-02T20:59:15.034Z,54.60
2018-05-02T21:01:42.593Z,51.40
2018-05-02T21:04:10.990Z,54.20
2018-05-02T21:06:38.630Z,54.10
2018-05-02T21:09:06.228Z,51.00
2018-05-02T21:11:33.788Z,54.10
2018-05-02T21:14:01.375Z,53.30
2018-05-02T21:16:28.949Z,52.60
2018-05-02T21:18:56.529Z,50.80
2018-05-02T21:21:24.105Z,50.10
2018-05-02T21:23:51.702Z,50.60
2018-05-02T21:26:19.265Z,52.40
2018-05-02T21:28:46.845Z,54.00
2018-05-02T21:31:15.163Z,52.10
2018-05-02T21:33:42.749Z,52.40
2018-05-02T21:36:10.306Z,54.70
2018-05-02T21:38:37.882Z,54.10
2018-05-02T21:41:05.443Z,55.20
2018-05-02T21:43:33.017Z,54.20
2018-05-02T21:46:00.593Z,53.30
2018-05-02T21:48:28.174Z,52.90
2018-05-02T21:50:55.739Z,51.80
2018-05-02T21:53:23.343Z,52.60
2018-05-02T21:55:50.920Z,54.90
2018-05-02T21:58:19.237Z,53.60
2018-05-02T22:00:46.852Z,53.70
2018-05-02T22:03:15.171Z,55.30
2018-05-02T22:05:42.826Z,55.30
2018-05-02T22:08:10.378Z,56.10
2018-05-02T22:10:37.954Z,55.80
2018-05-02T22:13:05.534Z,55.80
2018-05-02T22:15:33.687Z,54.90
2018-05-02T22:18:01.267Z,53.10
2018-05-02T22:20:28.859Z,54.10
2018-05-02T22:22:57.177Z,55.00
2018-05-02T22:25:24.754Z,54.90
2018-05-02T22:27:52.305Z,52.40
2018-05-02T22:30:19.898Z,53.20
2018-05-02T22:32:47.458Z,54.80
2018-05-02T22:35:15.039Z,56.90
2018-05-02T22:37:42.606Z,53.90
2018-05-02T22:40:10.951Z,55.00
2018-05-02T22:42:38.509Z,55.10
2018-05-02T22:45:06.237Z,52.00
2018-05-02T22:47:33.808Z,52.00
2018-05-02T22:50:02.179Z,53.40
2018-05-02T22:52:29.734Z,53.30
2018-05-02T22:54:57.357Z,53.80
2018-05-02T22:57:24.904Z,52.90
2018-05-02T22:59:52.494Z,53.40
2018-05-02T23:02:20.070Z,53.70
2018-05-02T23:04:47.663Z,53.30
2018-05-02T23:07:15.218Z,54.90
2018-05-02T23:09:42.774Z,51.60
2018-05-02T23:12:10.360Z,55.40
2018-05-02T23:14:38.691Z,55.70
2018-05-02T23:17:06.277Z,55.50
2018-05-02T23:19:33.854Z,54.40
2018-05-02T23:22:01.444Z,52.10
2018-05-02T23:24:28.997Z,54.10
2018-05-02T23:26:56.578Z,54.50
2018-05-02T23:29:24.413Z,57.10
2018-05-02T23:31:51.995Z,52.60
2018-05-02T23:34:19.544Z,52.60
2018-05-02T23:36:47.131Z,52.50
2018-05-02T23:39:14.681Z,54.10
2018-05-02T23:41:43.030Z,55.00
2018-05-02T23:44:10.580Z,54.90
2018-05-02T23:46:38.162Z,55.70
2018-05-02T23:49:05.714Z,54.20
2018-05-02T23:51:33.294Z,55.00
2018-05-02T23:54:00.850Z,53.50
2018-05-02T23:56:28.421Z,55.20
2018-05-02T23:58:55.977Z,53.90
